Weather observations for the past three days for
FORT ORD/FRITZSCHE
Imperial (Metric)
Date Time (pdt) Wind (mph) Vis. (mi.) Weather Sky Cond. Temperature (ºF) Relative Humidity Wind Chill (°F) Heat Index (°F) Pressure Precipitation (in)
Air Dwpt 6 hour altimeter (in) sea level (mb) 1 hr 3 hr 6 hr
Max. Min.
07 12:55 W 13 G 17 10.00 Overcast OVC007 60.8 53.6 77% 30.08 0.0
07 12:35 W 12 10.00 Overcast OVC007 59 53.6 82% 30.09 0.0
07 12:15 W 14 10.00 Mostly Cloudy BKN009 60.8 53.6 77% 30.09 0.0
07 11:55 W 10 10.00 Partly Cloudy SCT011 62.6 53.6 73% 30.09 0.0
07 11:35 W 9 10.00 Fair CLR 62.6 53.6 73% 30.09 0.0
07 11:15 N 3 10.00 Fair CLR 64.4 55.4 73% 30.09 0.0
07 10:55 Calm 10.00 Fair CLR 60.8 53.6 77% 30.09 0.0
07 10:35 Calm 10.00 Partly Cloudy SCT007 59 53.6 82% 30.09 0.0
07 10:15 Calm 10.00 Overcast OVC007 57.2 51.8 82% 30.1 0.0
07 09:55 SE 3 10.00 Overcast OVC005 55.4 51.8 88% 30.1 0.0
07 09:35 Calm 7.00 Overcast OVC003 53.6 51.8 94% 30.1 0.0
07 09:15 Calm 5.00 Fog/Mist OVC003 53.6 51.8 94% 30.1 0.0
07 08:55 Calm 4.00 Fog/Mist OVC003 53.6 51.8 94% 30.1 0.0
07 08:35 E 3 2.50 Fog/Mist OVC003 51.8 51.8 100% 30.1 0.0
07 08:15 Calm 2.00 Fog/Mist OVC003 53.6 51.8 94% 30.1 0.0
07 07:55 Calm 2.00 Fog/Mist OVC003 51.8 51.8 100% 30.1 0.0
07 07:35 Calm 2.00 Fog/Mist OVC003 51.8 51.8 100% 30.1 0.0
07 07:15 Calm 2.00 Fog/Mist OVC003 51.8 51.8 100% 30.1 0.0
07 06:55 Calm 1.75 Fog/Mist OVC003 51.8 51.8 100% 30.09 0.0
07 06:35 Calm 2.50 Fog/Mist OVC003 51.8 51.8 100% 30.09 0.0
07 06:15 SE 3 4.00 Fog/Mist OVC003 51.8 51.8 100% 30.09 0.0
07 05:55 Calm 5.00 Fog/Mist OVC003 51.8 51.8 100% 30.08 0.0
07 05:35 Calm 3.00 Fog/Mist OVC003 51.8 51.8 100% 30.09 0.0
07 05:15 Calm 4.00 Fog/Mist OVC003 51.8 51.8 100% 30.09 0.0
07 04:55 Calm 1.50 Fog/Mist OVC003 51.8 51.8 100% 30.09 0.0
07 04:35 Calm 1.25 Fog/Mist OVC003 51.8 51.8 100% 30.09 0.0
07 04:15 Calm 3.00 Fog/Mist OVC003 51.8 51.8 100% 30.09 0.0
07 03:55 Calm 5.00 Fog/Mist OVC003 51.8 51.8 100% 30.09 0.0
07 03:35 Calm 7.00 Overcast OVC003 51.8 51.8 100% 30.09 0.0
07 03:15 Calm 10.00 Overcast OVC005 51.8 50 94% 30.09 0.0
07 02:55 Calm 10.00 Overcast OVC005 51.8 50 94% 30.09 0.0
07 02:35 E 3 10.00 Overcast OVC005 51.8 50 94% 30.08 0.0
07 02:15 Calm 10.00 Overcast OVC005 51.8 50 94% 30.09 0.0
07 01:55 Calm 10.00 Mostly Cloudy BKN005 51.8 50 94% 30.09 0.0
07 01:35 Calm 10.00 Partly Cloudy SCT005 51.8 50 94% 30.1 0.0
07 01:15 E 3 10.00 Fair CLR 51.8 50 94% 30.1 0.0
07 00:55 W 3 10.00 Fair CLR 51.8 50 94% 30.1 0.0
07 00:35 SW 3 10.00 Fair CLR 51.8 50 94% 30.1 0.0
07 00:15 SW 8 10.00 Fair CLR 51.8 51.8 100% 30.1 0.0
06 23:55 SW 9 10.00 Partly Cloudy SCT006 53.6 51.8 94% 30.1 0.0
06 23:35 SW 10 10.00 Partly Cloudy SCT007 53.6 51.8 94% 30.1 0.0
06 23:15 SW 14 10.00 Mostly Cloudy BKN007 53.6 51.8 94% 30.1 0.0
06 22:55 SW 13 10.00 Overcast OVC007 53.6 51.8 94% 30.11 0.0
06 22:35 SW 12 G 15 10.00 Overcast OVC007 53.6 51.8 94% 30.11 0.0
06 22:15 SW 12 10.00 Overcast OVC007 53.6 51.8 94% 30.11 0.0
06 21:55 W 12 10.00 Overcast OVC007 53.6 51.8 94% 30.11 0.0
06 21:35 SW 10 10.00 Overcast OVC007 53.6 51.8 94% 30.1 0.0
06 21:15 W 14 10.00 Overcast OVC007 53.6 51.8 94% 30.1 0.0
06 20:55 W 13 10.00 Overcast OVC007 53.6 51.8 94% 30.1 0.0
06 20:15 W 14 10.00 Overcast OVC007 55.4 51.8 88% 30.1 0.0
06 19:55 W 14 10.00 Overcast OVC009 55.4 51.8 88% 30.09 0.0
06 19:35 W 16 G 20 10.00 Overcast OVC009 55.4 51.8 88% 30.09 0.0
06 19:15 W 13 G 20 10.00 Overcast OVC009 55.4 51.8 88% 30.09 0.0
06 18:55 W 14 G 21 10.00 Mostly Cloudy BKN009 55.4 51.8 88% 30.09 0.0
06 18:35 W 15 G 20 10.00 Partly Cloudy SCT011 57.2 51.8 82% 30.09 0.0
06 18:15 W 15 G 22 10.00 Partly Cloudy SCT011 59 51.8 77% 30.09 0.0
06 17:55 W 15 G 20 10.00 Fair CLR 60.8 51.8 72% 30.09 0.0
06 17:35 W 15 G 22 10.00 Fair CLR 59 51.8 77% 30.08 0.0
06 17:15 W 15 G 22 10.00 Fair CLR 60.8 51.8 72% 30.08 0.0
06 16:55 W 16 10.00 Fair CLR 62.6 51.8 68% 30.08 0.0
06 16:35 W 16 G 22 10.00 Fair CLR 62.6 51.8 68% 30.08 0.0
06 15:55 W 18 G 23 10.00 Fair CLR 62.6 51.8 68% 30.08 0.0
06 15:35 W 16 G 23 10.00 Fair CLR 62.6 51.8 68% 30.08 0.0
06 15:15 W 16 G 23 10.00 Fair CLR 64.4 51.8 64% 30.09 0.0
06 14:35 W 17 G 24 10.00 Fair CLR 64.4 51.8 64% 30.1 0.0
06 14:15 W 14 G 25 10.00 Fair CLR 64.4 51.8 64% 30.1 0.0
06 13:55 W 16 G 20 10.00 Fair CLR 64.4 51.8 64% 30.1 0.0
06 13:35 W 14 G 21 10.00 Fair CLR 64.4 51.8 64% 30.11 0.0
06 13:15 W 14 G 21 10.00 Fair CLR 64.4 51.8 64% 30.11 0.0
06 12:55 W 12 G 16 10.00 Fair CLR 66.2 51.8 60% 30.11 0.0
06 12:35 NW 9 10.00 Fair CLR 66.2 51.8 60% 30.12 0.0
06 12:15 W 9 10.00 Fair CLR 64.4 51.8 64% 30.12 0.0
06 11:55 W 12 10.00 Fair CLR 66.2 51.8 60% 30.12 0.0
06 11:35 NW 10 10.00 Fair CLR 66.2 51.8 60% 30.12 0.0
06 11:15 NW 10 10.00 Partly Cloudy SCT028 66.2 53.6 64% 30.12 0.0
06 10:55 NW 7 10.00 Partly Cloudy SCT028 64.4 51.8 64% 30.12 0.0
06 10:35 NE 3 10.00 Fair CLR 64.4 50 60% 30.12 0.0
06 10:15 E 7 10.00 Fair CLR 64.4 51.8 64% 30.12 0.0
06 09:55 Calm 10.00 Fair CLR 62.6 51.8 68% 30.13 0.0
06 09:35 E 5 10.00 Fair CLR 60.8 51.8 72% 30.13 0.0
06 09:15 E 5 10.00 Fair CLR 60.8 51.8 72% 30.13 0.0
06 08:55 E 5 10.00 Fair CLR 59 50 72% 30.13 0.0
06 08:35 SE 6 10.00 Fair CLR 59 50 72% 30.13 0.0
06 08:15 SE 5 10.00 Partly Cloudy SCT031 57.2 50 77% 30.14 0.0
06 07:55 E 5 10.00 Overcast OVC031 57.2 50 77% 30.14 0.0
06 07:35 Calm 10.00 Overcast OVC031 53.6 50 88% 30.13 0.0
06 06:55 Calm 10.00 Overcast OVC029 51.8 48.2 88% 30.13 0.0
06 06:35 Calm 10.00 Overcast SCT021 OVC029 51.8 48.2 88% 30.12 0.0
06 06:15 SE 3 10.00 Overcast SCT021 OVC029 51.8 48.2 88% 30.12 0.0
06 05:55 Calm 10.00 Overcast SCT021 OVC029 53.6 50 88% 30.11 0.0
06 05:35 Calm 10.00 Overcast SCT021 OVC027 53.6 50 88% 30.11 0.0
06 04:55 SW 5 10.00 Overcast OVC027 53.6 50 88% 30.1 0.0
06 04:35 SW 6 10.00 Overcast OVC029 53.6 50 88% 30.1 0.0
06 04:15 SW 5 10.00 Overcast OVC029 51.8 50 94% 30.1 0.0
06 03:55 SW 6 10.00 Overcast OVC029 51.8 50 94% 30.1 0.0
06 03:35 SW 5 10.00 Overcast OVC029 51.8 50 94% 30.1 0.0
06 03:15 SW 3 10.00 Mostly Cloudy BKN031 51.8 50 94% 30.09 0.0
06 02:55 SW 5 10.00 Mostly Cloudy BKN033 53.6 50 88% 30.1 0.0
06 02:35 W 6 10.00 Mostly Cloudy BKN030 53.6 51.8 94% 30.1 0.0
06 02:15 W 7 10.00 Overcast OVC028 53.6 51.8 94% 30.1 0.0
06 01:55 W 7 10.00 Overcast OVC026 55.4 51.8 88% 30.1 0.0
06 01:35 W 7 10.00 Overcast OVC022 55.4 51.8 88% 30.09 0.0
06 01:15 SW 7 10.00 Overcast OVC024 53.6 51.8 94% 30.09 0.0
06 00:55 W 8 10.00 Mostly Cloudy BKN024 53.6 51.8 94% 30.09 0.0
06 00:35 W 7 10.00 Partly Cloudy SCT024 SCT038 53.6 51.8 94% 30.09 0.0
06 00:15 W 7 10.00 Overcast OVC038 53.6 51.8 94% 30.08 0.0
05 23:55 W 8 10.00 Overcast OVC038 55.4 51.8 88% 30.08 0.0
05 23:35 W 7 10.00 Overcast OVC038 55.4 51.8 88% 30.08 0.0
05 23:15 W 8 10.00 Overcast OVC040 55.4 51.8 88% 30.07 0.0
05 22:55 W 9 10.00 Overcast OVC040 55.4 51.8 88% 30.08 0.0
05 22:35 W 8 10.00 Overcast OVC040 55.4 51.8 88% 30.07 0.0
05 22:15 W 8 10.00 Overcast OVC040 55.4 51.8 88% 30.07 0.0
05 21:55 W 7 10.00 Overcast OVC040 55.4 50 82% 30.07 0.0
05 21:35 W 7 10.00 Overcast OVC040 55.4 50 82% 30.06 0.0
05 21:15 W 7 10.00 Overcast OVC040 55.4 50 82% 30.06 0.0
05 20:55 W 6 10.00 Overcast OVC042 55.4 50 82% 30.05 0.0
05 20:35 W 7 10.00 Overcast OVC042 55.4 50 82% 30.05 0.0
05 20:15 W 5 10.00 Overcast OVC042 55.4 50 82% 30.04 0.0
05 19:55 W 7 10.00 Overcast SCT013 OVC042 55.4 50 82% 30.03 0.0
05 19:35 W 8 10.00 Overcast SCT015 SCT030 OVC042 55.4 50 82% 30.03 0.0
05 19:15 W 8 10.00 Overcast BKN015 OVC042 55.4 50 82% 30.03 0.0
05 18:55 W 8 10.00 Overcast OVC042 55.4 50 82% 30.03 0.0
05 18:35 W 8 10.00 Overcast OVC042 57.2 50 77% 30.03 0.0
05 18:15 W 8 10.00 Overcast OVC040 57.2 50 77% 30.02 0.0
05 17:55 W 5 10.00 Overcast OVC040 57.2 50 77% 30.02 0.0
05 17:35 W 10 10.00 Overcast SCT015 OVC040 59 50 72% 30.02 0.0
05 17:15 W 10 10.00 Overcast OVC040 59 50 72% 30.02 0.0
05 16:55 W 12 G 16 10.00 Overcast OVC040 59 50 72% 30.02 0.0
05 16:35 W 12 10.00 Overcast SCT020 OVC040 60.8 48.2 63% 30.02 0.0
05 16:15 W 14 10.00 Overcast SCT020 OVC042 60.8 48.2 63% 30.02 0.0
05 15:55 W 10 10.00 Overcast SCT020 BKN044 OVC075 60.8 50 68% 30.02 0.0
05 15:35 W 10 G 16 10.00 Overcast SCT020 SCT042 OVC075 60.8 50 68% 30.02 0.0
05 15:15 W 13 10.00 Overcast SCT020 SCT042 OVC075 60.8 50 68% 30.02 0.0
05 14:55 W 13 G 18 10.00 Overcast SCT018 SCT042 OVC075 60.8 50 68% 30.02 0.0
05 14:35 W 13 10.00 Overcast SCT017 SCT049 OVC075 60.8 50 68% 30.03 0.0
05 14:15 W 12 10.00 Overcast SCT019 BKN049 OVC075 60.8 50 68% 30.03 0.0
05 13:55 W 10 10.00 Overcast SCT019 OVC075 60.8 50 68% 30.03 0.0
05 13:35 W 14 G 20 10.00 Overcast SCT019 OVC075 60.8 50 68% 30.03 0.0
05 13:15 W 13 10.00 Overcast SCT021 SCT060 OVC075 60.8 50 68% 30.03 0.0
05 12:55 W 10 G 16 10.00 Overcast SCT019 OVC060 60.8 50 68% 30.03 0.0
05 12:35 W 10 10.00 Overcast SCT017 OVC060 59 48.2 68% 30.04 0.0
05 12:15 NW 8 10.00 Overcast SCT017 OVC060 59 48.2 68% 30.04 0.0
05 11:55 W 9 10.00 Overcast SCT017 OVC060 59 48.2 68% 30.04 0.0
05 11:35 NW 6 10.00 Overcast SCT017 OVC060 57.2 50 77% 30.04 0.0
05 11:15 W 9 10.00 Overcast SCT017 OVC050 57.2 48.2 72% 30.03 0.0
05 10:55 W 9 10.00 Overcast SCT015 SCT021 OVC050 57.2 48.2 72% 30.03 0.0
05 10:35 NW 6 10.00 Overcast SCT013 OVC050 55.4 50 82% 30.02 0.0
05 09:55 W 6 10.00 Overcast SCT013 OVC046 55.4 50 82% 30.02 0.0
05 09:35 W 6 10.00 Overcast OVC042 55.4 50 82% 30.02 0.0
05 09:15 W 9 10.00 Overcast OVC038 55.4 46.4 72% 30.01 0.0
05 08:55 W 7 10.00 Overcast BKN038 OVC080 55.4 46.4 72% 30 0.0
05 08:35 W 6 10.00 Overcast OVC080 55.4 46.4 72% 30 0.0
05 08:15 W 7 10.00 Overcast BKN075 OVC090 55.4 46.4 72% 30 0.0
05 07:55 W 7 10.00 Overcast BKN090 OVC120 53.6 46.4 77% 30 0.0
05 07:35 SW 7 10.00 Mostly Cloudy BKN100 BKN120 53.6 46.4 77% 29.99 0.0
05 07:15 SW 7 10.00 Mostly Cloudy SCT046 BKN090 BKN110 51.8 46.4 82% 29.99 0.0
05 06:55 SW 7 10.00 Overcast SCT046 OVC110 51.8 46.4 82% 29.98 0.0
05 06:35 SW 6 10.00 Mostly Cloudy BKN110 51.8 46.4 82% 29.98 0.0
05 06:15 SW 6 10.00 Mostly Cloudy BKN110 51.8 46.4 82% 29.97 0.0
05 05:35 SW 6 10.00 Overcast SCT018 SCT026 OVC110 51.8 46.4 82% 29.98 0.0
05 05:15 SW 7 10.00 Mostly Cloudy BKN016 BKN120 51.8 46.4 82% 29.98 0.0
05 04:55 SW 7 10.00 Mostly Cloudy SCT035 BKN120 51.8 46.4 82% 29.97 0.0
05 04:15 SW 7 10.00 Overcast OVC120 51.8 48.2 88% 29.97 0.0
05 03:55 SW 5 10.00 Partly Cloudy SCT120 51.8 48.2 88% 29.97 0.0
05 03:35 SW 3 10.00 Partly Cloudy SCT120 51.8 50 94% 29.97 0.0
05 03:15 W 3 10.00 Partly Cloudy SCT120 51.8 50 94% 29.97 0.0
05 02:55 W 6 10.00 Partly Cloudy SCT012 SCT120 51.8 50 94% 29.98 0.0
05 02:35 W 6 10.00 Partly Cloudy SCT011 51.8 50 94% 29.98 0.0
05 02:15 SW 3 10.00 Overcast OVC013 51.8 48.2 88% 29.99 0.0
05 01:55 SW 7 10.00 Overcast OVC013 51.8 48.2 88% 29.98 0.0
05 01:35 SW 6 10.00 Overcast BKN015 BKN020 OVC120 51.8 46.4 82% 29.99 0.0
05 01:15 SW 6 10.00 Mostly Cloudy SCT017 BKN120 51.8 46.4 82% 30 0.0
05 00:55 SW 6 10.00 Partly Cloudy SCT015 SCT021 SCT026 51.8 46.4 82% 30 0.0
05 00:35 SW 6 10.00 Mostly Cloudy BKN015 BKN021 BKN026 51.8 46.4 82% 30 0.0
05 00:15 SW 6 10.00 Mostly Cloudy SCT018 BKN120 51.8 46.4 82% 30 0.0
04 23:55 SW 6 10.00 Mostly Cloudy BKN018 51.8 46.4 82% 29.99 0.0
04 23:35 SW 6 10.00 Partly Cloudy SCT016 50 46.4 88% 48 29.99 0.0
04 23:15 SW 7 10.00 Fair CLR 50 46.4 88% 48 30 0.0
04 22:55 SW 6 10.00 Fair CLR 50 46.4 88% 48 30 0.0
04 22:35 SW 6 10.00 Fair CLR 51.8 46.4 82% 30 0.0
04 22:15 SW 5 10.00 Fair CLR 51.8 46.4 82% 30 0.0
04 21:55 S 5 10.00 Fair CLR 50 46.4 88% 49 30 0.0
04 21:35 W 3 10.00 Fair CLR 53.6 48.2 82% 30 0.0
04 21:15 W 5 10.00 Fair CLR 53.6 48.2 82% 29.99 0.0
04 20:55 W 8 10.00 Fair CLR 53.6 48.2 82% 29.98 0.0
04 20:35 W 7 10.00 Fair CLR 53.6 48.2 82% 29.98 0.0
04 20:15 W 8 10.00 Partly Cloudy SCT080 53.6 48.2 82% 29.98 0.0
04 19:55 W 9 10.00 Partly Cloudy SCT080 53.6 48.2 82% 29.98 0.0
04 19:35 W 12 10.00 Partly Cloudy SCT080 55.4 46.4 72% 29.97 0.0
04 19:15 W 8 10.00 Partly Cloudy SCT080 55.4 46.4 72% 29.97 0.0
04 18:55 W 14 10.00 Fair CLR 55.4 46.4 72% 29.97 0.0
04 18:35 W 13 10.00 Fair CLR 57.2 46.4 67% 29.98 0.0
04 18:15 W 14 10.00 Fair CLR 59 46.4 63% 29.99 0.0
04 17:55 W 15 10.00 Partly Cloudy SCT080 59 46.4 63% 29.99 0.0
04 17:35 W 13 10.00 Fair CLR 59 48.2 68% 30 0.0
04 17:15 W 13 G 18 10.00 Fair CLR 59 46.4 63% 29.99 0.0
04 16:55 W 17 G 21 10.00 Fair CLR 59 46.4 63% 29.99 0.0
04 16:35 W 14 G 25 10.00 Fair CLR 60.8 50 68% 29.99 0.0
04 16:15 W 13 10.00 Partly Cloudy SCT046 60.8 50 68% 29.99 0.0
04 15:55 W 17 G 22 10.00 Overcast OVC048 60.8 50 68% 29.99 0.0
04 15:35 W 16 G 22 10.00 Mostly Cloudy BKN050 62.6 46.4 56% 30 0.0
04 15:15 W 16 G 20 10.00 Overcast OVC050 62.6 46.4 56% 30 0.0
04 14:55 W 14 10.00 Overcast OVC050 60.8 46.4 59% 30 0.0
04 14:35 W 15 10.00 Mostly Cloudy BKN050 60.8 46.4 59% 30.01 0.0
04 14:15 W 16 10.00 Mostly Cloudy BKN050 62.6 46.4 56% 30.01 0.0
04 13:55 W 13 G 18 10.00 Mostly Cloudy BKN050 BKN065 60.8 46.4 59% 30.01 0.0
04 13:35 W 16 G 21 10.00 Partly Cloudy SCT065 62.6 46.4 56% 30.01 0.0
Date Time (pdt) Wind (mph) Vis. (mi.) Weather Sky Cond. Air Dwpt Max. Min. Relative Humidity Wind Chill (°F) Heat Index (°F) altimeter (in) sea level (mb) 1 hr 3 hr 6 hr
6 hour
Temperature (ºF) Pressure Precipitation (in)